Gaars Mill, Louisiana
Current Conditions -  °F | °C
As of 12:15 PM on Friday 24 Oct 2014 (Local Time) from KRSN Reporting Station
Clear Clear  
Wind Chill: 67°   Ceiling: Unl
Heat Index: 67°   Visibility: 10mi
Dew Point: 50°   Wind: 3mph
Humidity: 53%   Direction: 90°E
Pressure: 30.21"   Gusts: NA
Location:  32.0727°N, 92.6697°W
Report Text: KRSN 241715Z AUTO 09003KT 10SM CLR 20/10 A3021 RMK AO2 T01960098
Loading
Personal Weather Stations






























Interactive Weather Map
Tropical Storm Tracking
New forecast layout! Learn more

10-Day Weather Forecast

Advertisements
Track Severe Weather on mobile